createdAt,value
2023-03-03T00:00:25.863Z,10.18
2023-03-03T00:03:19.471Z,10.05
2023-03-03T00:06:06.111Z,9.43
2023-03-03T00:08:52.192Z,10.60
2023-03-03T00:11:38.222Z,9.98
2023-03-03T00:14:32.157Z,9.75
2023-03-03T00:17:24.883Z,9.15
2023-03-03T00:20:35.886Z,10.30
2023-03-03T00:23:43.218Z,9.82
2023-03-03T00:26:36.510Z,9.43
2023-03-03T00:29:35.997Z,9.70
2023-03-03T00:32:23.870Z,9.95
2023-03-03T00:35:27.664Z,8.75
2023-03-03T00:38:18.525Z,10.65
2023-03-03T00:41:11.456Z,11.45
2023-03-03T00:43:58.574Z,11.85
2023-03-03T00:46:44.744Z,9.77
2023-03-03T00:49:30.742Z,10.65
2023-03-03T00:52:18.510Z,10.55
2023-03-03T00:55:06.258Z,10.65
2023-03-03T00:57:52.122Z,9.88
2023-03-03T01:00:42.821Z,10.23
2023-03-03T01:03:32.041Z,9.07
2023-03-03T01:06:17.866Z,9.20
2023-03-03T01:09:04.053Z,9.95
2023-03-03T01:11:50.799Z,10.38
2023-03-03T01:14:36.971Z,10.73
2023-03-03T01:17:23.104Z,9.90
2023-03-03T01:20:11.428Z,9.48
2023-03-03T01:22:57.612Z,9.35
2023-03-03T01:25:43.688Z,8.98
2023-03-03T01:28:29.724Z,8.88
2023-03-03T01:31:15.723Z,9.40
2023-03-03T01:34:01.815Z,8.88
2023-03-03T01:36:47.689Z,9.00
2023-03-03T01:39:33.758Z,10.00
2023-03-03T01:42:20.268Z,9.35
2023-03-03T01:45:12.744Z,8.85
2023-03-03T01:48:01.594Z,9.20
2023-03-03T01:50:56.006Z,9.73
2023-03-03T01:53:48.016Z,10.00
2023-03-03T01:59:25.131Z,7.53
2023-03-03T02:02:11.959Z,7.88
2023-03-03T02:04:58.920Z,8.88
2023-03-03T02:07:45.822Z,10.10
2023-03-03T02:10:31.987Z,9.07
2023-03-03T02:13:17.967Z,9.77
2023-03-03T02:16:04.658Z,9.85
2023-03-03T02:21:37.228Z,8.13
2023-03-03T02:24:39.605Z,8.57
2023-03-03T02:27:28.043Z,8.82
2023-03-03T02:30:18.301Z,9.70
2023-03-03T02:33:05.108Z,9.27
2023-03-03T02:35:51.455Z,8.85
2023-03-03T02:38:44.659Z,9.32
2023-03-03T02:41:44.933Z,8.48
2023-03-03T02:44:32.817Z,8.18
2023-03-03T02:47:19.487Z,9.40
2023-03-03T02:50:06.034Z,8.05
2023-03-03T02:52:51.792Z,8.55
2023-03-03T02:55:38.676Z,8.10
2023-03-03T02:58:25.320Z,9.20
2023-03-03T03:01:11.742Z,8.75
2023-03-03T03:03:58.968Z,9.32
2023-03-03T03:06:45.541Z,8.88
2023-03-03T03:09:33.066Z,9.50
2023-03-03T03:12:21.185Z,9.13
2023-03-03T03:15:10.630Z,8.20
2023-03-03T03:17:56.705Z,10.55
2023-03-03T03:20:43.374Z,9.13
2023-03-03T03:23:29.838Z,9.75
2023-03-03T03:26:17.018Z,9.27
2023-03-03T03:29:03.462Z,10.05
2023-03-03T03:31:49.888Z,9.15
2023-03-03T03:34:36.056Z,10.85
2023-03-03T03:37:23.692Z,9.38
2023-03-03T03:40:11.415Z,9.80
2023-03-03T03:42:57.781Z,9.43
2023-03-03T03:45:44.125Z,9.60
2023-03-03T03:48:31.382Z,9.73
2023-03-03T03:51:19.213Z,9.00
2023-03-03T03:54:05.618Z,8.98
2023-03-03T03:56:54.755Z,9.18
2023-03-03T03:59:41.994Z,9.85
2023-03-03T04:02:28.532Z,9.63
2023-03-03T04:05:15.578Z,9.85
2023-03-03T04:08:02.383Z,8.75
2023-03-03T04:10:48.650Z,9.57
2023-03-03T04:13:35.522Z,9.40
2023-03-03T04:16:25.070Z,9.05
2023-03-03T04:19:11.304Z,9.32
2023-03-03T04:22:00.340Z,10.20
2023-03-03T04:24:48.637Z,10.02
2023-03-03T04:27:37.232Z,9.30
2023-03-03T04:30:23.955Z,10.60
2023-03-03T04:33:13.774Z,10.60
2023-03-03T04:36:01.306Z,10.02
2023-03-03T04:38:47.395Z,10.30
2023-03-03T04:41:33.640Z,10.50
2023-03-03T04:44:20.041Z,10.13
2023-03-03T04:47:07.470Z,10.68
2023-03-03T04:49:54.147Z,9.95
2023-03-03T04:52:40.857Z,9.70
2023-03-03T04:55:28.123Z,9.82
2023-03-03T04:58:16.012Z,10.15
2023-03-03T05:01:03.195Z,9.85
2023-03-03T05:03:51.314Z,11.70
2023-03-03T05:06:38.055Z,10.65
2023-03-03T05:09:24.431Z,10.30
2023-03-03T05:12:10.609Z,9.52
2023-03-03T05:14:56.489Z,10.02
2023-03-03T05:17:42.602Z,10.00
2023-03-03T05:20:28.702Z,10.32
2023-03-03T05:23:15.166Z,10.30
2023-03-03T05:26:01.231Z,9.75
2023-03-03T05:28:47.112Z,9.68
2023-03-03T05:31:33.148Z,9.25
2023-03-03T05:34:19.049Z,11.30
2023-03-03T05:37:06.696Z,10.07
2023-03-03T05:39:52.744Z,10.18
2023-03-03T05:42:38.649Z,9.27
2023-03-03T05:45:25.075Z,10.73
2023-03-03T05:48:11.229Z,10.48
2023-03-03T05:51:00.834Z,9.75
2023-03-03T05:53:46.887Z,8.73
2023-03-03T05:56:32.964Z,11.20
2023-03-03T05:59:19.705Z,9.52
2023-03-03T06:04:52.211Z,9.07
2023-03-03T06:07:38.648Z,9.32
2023-03-03T06:10:24.839Z,10.05
2023-03-03T06:13:15.494Z,10.82
2023-03-03T06:16:02.398Z,10.60
2023-03-03T06:18:48.629Z,10.95
2023-03-03T06:21:34.603Z,10.25
2023-03-03T06:24:20.648Z,10.05
2023-03-03T06:27:06.554Z,10.18
2023-03-03T06:29:53.320Z,9.93
2023-03-03T06:32:39.462Z,11.02
2023-03-03T06:35:25.747Z,11.70
2023-03-03T06:38:12.073Z,11.10
2023-03-03T06:40:58.640Z,10.93
2023-03-03T06:43:45.044Z,11.35
2023-03-03T06:46:31.394Z,10.82
2023-03-03T06:49:17.779Z,11.93
2023-03-03T06:52:14.285Z,11.15
2023-03-03T06:55:10.104Z,10.57
2023-03-03T06:57:56.216Z,11.25
2023-03-03T07:00:58.389Z,10.63
2023-03-03T07:03:45.599Z,10.82
2023-03-03T07:06:32.633Z,10.32
2023-03-03T07:09:28.155Z,11.40
2023-03-03T07:12:22.219Z,11.05
2023-03-03T07:15:22.180Z,9.75
2023-03-03T07:18:38.018Z,10.40
2023-03-03T07:21:31.764Z,10.70
2023-03-03T07:24:26.342Z,9.77
2023-03-03T07:27:31.685Z,10.85
2023-03-03T07:30:36.152Z,11.75
2023-03-03T07:33:45.632Z,11.32
2023-03-03T07:36:36.171Z,10.60
2023-03-03T07:39:32.225Z,11.50
2023-03-03T07:42:28.406Z,11.48
2023-03-03T07:45:32.494Z,11.77
2023-03-03T07:48:45.278Z,12.13
2023-03-03T07:51:42.155Z,11.27
2023-03-03T07:54:40.476Z,11.43
2023-03-03T07:57:37.971Z,12.07
2023-03-03T08:00:24.594Z,11.20
2023-03-03T08:03:20.756Z,11.27
2023-03-03T08:06:35.685Z,12.38
2023-03-03T08:09:31.257Z,11.18
2023-03-03T08:12:42.830Z,11.35
2023-03-03T08:15:33.832Z,11.07
2023-03-03T08:18:25.046Z,10.63
2023-03-03T08:21:19.078Z,10.98
2023-03-03T08:24:05.340Z,12.05
2023-03-03T08:26:51.425Z,12.23
2023-03-03T08:29:37.670Z,19.17
2023-03-03T08:32:23.692Z,12.25
2023-03-03T08:35:10.213Z,11.48
2023-03-03T08:37:56.316Z,12.18
2023-03-03T08:40:42.951Z,11.52
2023-03-03T08:43:29.693Z,11.95
2023-03-03T08:46:16.587Z,12.40
2023-03-03T08:49:02.915Z,12.68
2023-03-03T08:51:49.375Z,12.25
2023-03-03T08:54:35.275Z,11.88
2023-03-03T08:57:21.195Z,12.07
2023-03-03T09:00:13.082Z,11.65
2023-03-03T09:02:59.195Z,12.95
2023-03-03T09:05:45.752Z,12.57
2023-03-03T09:08:32.006Z,12.63
2023-03-03T09:11:24.810Z,13.57
2023-03-03T09:14:13.511Z,13.00
2023-03-03T09:16:59.867Z,12.02
2023-03-03T09:19:46.409Z,13.57
2023-03-03T09:22:36.252Z,12.00
2023-03-03T09:25:33.405Z,13.90
2023-03-03T09:28:31.605Z,12.88
2023-03-03T09:31:27.460Z,13.02
2023-03-03T09:34:20.803Z,12.30
2023-03-03T09:37:22.859Z,13.35
2023-03-03T09:40:35.196Z,13.23
2023-03-03T09:43:37.618Z,12.88
2023-03-03T09:46:30.854Z,12.13
2023-03-03T09:49:33.990Z,12.55
2023-03-03T09:52:35.035Z,13.55
2023-03-03T09:55:42.968Z,12.77
2023-03-03T09:58:45.800Z,11.40
2023-03-03T10:01:59.898Z,12.70
2023-03-03T10:05:00.613Z,14.68
2023-03-03T10:07:52.726Z,12.57
2023-03-03T10:11:05.100Z,11.93
2023-03-03T10:14:11.671Z,13.25
2023-03-03T10:17:18.888Z,12.85
2023-03-03T10:20:49.700Z,13.18
2023-03-03T10:23:39.333Z,13.25
2023-03-03T10:27:09.820Z,13.70
2023-03-03T10:30:11.339Z,12.88
2023-03-03T10:33:23.098Z,12.10
2023-03-03T10:36:21.570Z,14.02
2023-03-03T10:42:12.256Z,11.65
2023-03-03T10:45:35.164Z,13.02
2023-03-03T10:48:49.512Z,13.25
2023-03-03T10:51:57.869Z,13.23
2023-03-03T10:54:59.859Z,13.23
2023-03-03T10:57:48.744Z,13.95
2023-03-03T11:01:14.858Z,12.95
2023-03-03T11:04:41.031Z,14.00
2023-03-03T11:07:42.934Z,12.80
2023-03-03T11:10:48.256Z,12.57
2023-03-03T11:13:52.064Z,13.00
2023-03-03T11:17:17.318Z,13.55
2023-03-03T11:20:43.034Z,13.38
2023-03-03T11:24:13.360Z,13.65
2023-03-03T11:27:19.707Z,13.35
2023-03-03T11:30:41.112Z,12.57
2023-03-03T11:33:30.505Z,14.00
2023-03-03T11:36:42.199Z,14.48
2023-03-03T11:39:28.450Z,12.50
2023-03-03T11:42:35.130Z,15.00
2023-03-03T11:45:29.587Z,14.27
2023-03-03T11:48:18.632Z,14.32
2023-03-03T11:51:31.280Z,13.88
2023-03-03T11:54:29.363Z,13.95
2023-03-03T11:57:44.911Z,14.40
2023-03-03T12:00:40.118Z,13.93
2023-03-03T12:03:51.085Z,14.32
2023-03-03T12:07:12.991Z,12.98
2023-03-03T12:10:08.696Z,14.63
2023-03-03T12:13:32.260Z,15.13
2023-03-03T12:16:18.425Z,14.75
2023-03-03T12:19:19.944Z,14.35
2023-03-03T12:22:29.636Z,16.05
2023-03-03T12:25:54.263Z,15.20
2023-03-03T12:28:59.460Z,16.17
2023-03-03T12:32:07.737Z,16.15
2023-03-03T12:35:15.851Z,16.33
2023-03-03T12:38:18.017Z,16.52
2023-03-03T12:41:20.432Z,15.70
2023-03-03T12:44:22.857Z,15.82
2023-03-03T12:47:35.684Z,16.75
2023-03-03T12:50:43.152Z,17.83
2023-03-03T12:53:38.108Z,16.08
2023-03-03T12:56:35.165Z,16.83
2023-03-03T12:59:21.360Z,17.98
2023-03-03T13:02:25.753Z,16.63
2023-03-03T13:05:23.359Z,16.95
2023-03-03T13:08:21.539Z,16.40
2023-03-03T13:11:38.035Z,16.77
2023-03-03T13:14:49.526Z,15.82
2023-03-03T13:17:49.477Z,18.33
2023-03-03T13:20:51.797Z,16.58
2023-03-03T13:23:56.209Z,16.40
2023-03-03T13:27:04.892Z,16.77
2023-03-03T13:30:09.034Z,17.35
2023-03-03T13:33:02.296Z,16.20
2023-03-03T13:36:10.369Z,15.98
2023-03-03T13:39:02.762Z,16.10
2023-03-03T13:41:57.139Z,17.88
2023-03-03T13:44:47.595Z,17.25
2023-03-03T13:48:14.100Z,17.60
2023-03-03T13:51:04.821Z,16.77
2023-03-03T13:54:07.992Z,17.25
2023-03-03T13:57:09.081Z,18.02
2023-03-03T13:59:58.210Z,17.73
2023-03-03T14:03:04.497Z,17.75
2023-03-03T14:05:52.586Z,17.63
2023-03-03T14:08:50.430Z,17.08
2023-03-03T14:12:01.616Z,18.13
2023-03-03T14:14:52.570Z,18.52
2023-03-03T14:18:11.660Z,17.95
2023-03-03T14:21:06.388Z,17.33
2023-03-03T14:24:31.163Z,17.60
2023-03-03T14:27:25.128Z,16.85
2023-03-03T14:30:33.161Z,17.65
2023-03-03T14:33:22.948Z,18.08
2023-03-03T14:36:13.222Z,17.60
2023-03-03T14:38:59.700Z,17.33
2023-03-03T14:41:46.125Z,17.60
2023-03-03T14:44:38.878Z,16.95
2023-03-03T14:47:27.825Z,16.40
2023-03-03T14:50:38.503Z,16.55
2023-03-03T14:53:35.818Z,16.08
2023-03-03T14:56:23.983Z,16.23
2023-03-03T14:59:30.771Z,15.88
2023-03-03T15:02:16.702Z,16.23
2023-03-03T15:05:23.901Z,14.30
2023-03-03T15:08:11.353Z,14.23
2023-03-03T15:11:32.359Z,15.00
2023-03-03T15:14:29.709Z,15.18
2023-03-03T15:17:29.469Z,14.68
2023-03-03T15:20:43.120Z,15.43
2023-03-03T15:23:48.175Z,13.65
2023-03-03T15:26:43.410Z,13.80
2023-03-03T15:29:52.840Z,15.20
2023-03-03T15:33:08.610Z,13.57
2023-03-03T15:36:04.163Z,13.82
2023-03-03T15:38:59.476Z,15.43
2023-03-03T15:42:11.884Z,14.30
2023-03-03T15:45:28.396Z,14.13
2023-03-03T15:48:28.120Z,14.70
2023-03-03T15:51:20.617Z,14.40
2023-03-03T15:54:33.386Z,14.18
2023-03-03T15:57:38.257Z,13.63
2023-03-03T16:01:02.249Z,14.82
2023-03-03T16:04:20.170Z,14.50
2023-03-03T16:07:25.951Z,14.80
2023-03-03T16:10:45.420Z,15.18
2023-03-03T16:13:46.353Z,14.57
2023-03-03T16:16:51.108Z,14.18
2023-03-03T16:19:49.233Z,14.88
2023-03-03T16:22:35.344Z,14.70
2023-03-03T16:25:55.263Z,13.90
2023-03-03T16:29:16.310Z,13.68
2023-03-03T16:32:18.182Z,15.90
2023-03-03T16:35:17.767Z,14.32
2023-03-03T16:38:18.444Z,14.65
2023-03-03T16:41:29.362Z,15.05
2023-03-03T16:44:49.233Z,14.65
2023-03-03T16:47:47.152Z,14.88
2023-03-03T16:51:00.262Z,14.95
2023-03-03T16:54:00.664Z,16.10
2023-03-03T16:56:59.245Z,15.57
2023-03-03T17:02:54.604Z,13.82
2023-03-03T17:05:48.032Z,14.40
2023-03-03T17:08:39.768Z,15.30
2023-03-03T17:12:02.668Z,13.82
2023-03-03T17:15:04.375Z,14.48
2023-03-03T17:18:11.067Z,14.30
2023-03-03T17:21:01.898Z,14.88
2023-03-03T17:23:53.866Z,16.88
2023-03-03T17:26:57.195Z,15.82
2023-03-03T17:29:50.835Z,14.88
2023-03-03T17:32:45.172Z,13.93
2023-03-03T17:35:59.134Z,14.60
2023-03-03T17:39:10.250Z,14.35
2023-03-03T17:42:19.973Z,13.88
2023-03-03T17:45:17.676Z,14.45
2023-03-03T17:48:03.781Z,15.57
2023-03-03T17:51:04.830Z,13.93
2023-03-03T17:54:17.632Z,14.32
2023-03-03T17:57:14.079Z,12.43
2023-03-03T18:00:42.418Z,13.48
2023-03-03T18:06:55.939Z,13.68
2023-03-03T18:10:06.612Z,14.52
2023-03-03T18:13:02.909Z,14.23
2023-03-03T18:16:10.681Z,13.93
2023-03-03T18:19:12.799Z,14.07
2023-03-03T18:22:07.526Z,14.10
2023-03-03T18:25:00.555Z,13.77
2023-03-03T18:28:07.880Z,13.98
2023-03-03T18:31:00.813Z,14.50
2023-03-03T18:34:17.667Z,14.60
2023-03-03T18:37:38.200Z,14.77
2023-03-03T18:40:36.039Z,15.32
2023-03-03T18:43:43.933Z,15.05
2023-03-03T18:46:36.234Z,15.02
2023-03-03T18:49:48.482Z,15.77
2023-03-03T18:52:36.411Z,15.57
2023-03-03T18:55:26.247Z,15.38
2023-03-03T18:58:15.511Z,16.15
2023-03-03T19:01:33.469Z,16.35
2023-03-03T19:04:22.494Z,15.63
2023-03-03T19:07:26.810Z,15.10
2023-03-03T19:10:22.207Z,15.52
2023-03-03T19:13:46.823Z,16.05
2023-03-03T19:16:36.850Z,14.73
2023-03-03T19:19:28.871Z,15.57
2023-03-03T19:22:22.764Z,16.10
2023-03-03T19:25:09.018Z,16.10
2023-03-03T19:28:06.785Z,16.10
2023-03-03T19:31:02.025Z,15.68
2023-03-03T19:33:59.421Z,15.70
2023-03-03T19:37:16.732Z,15.20
2023-03-03T19:40:23.192Z,14.18
2023-03-03T19:43:23.816Z,14.80
2023-03-03T19:46:38.183Z,14.52
2023-03-03T19:49:56.575Z,15.25
2023-03-03T19:52:56.603Z,13.85
2023-03-03T19:56:13.890Z,14.73
2023-03-03T19:59:18.137Z,15.10
2023-03-03T20:02:22.964Z,13.52
2023-03-03T20:05:48.610Z,13.55
2023-03-03T20:08:43.845Z,14.70
2023-03-03T20:11:51.032Z,14.90
2023-03-03T20:14:46.750Z,14.25
2023-03-03T20:17:38.777Z,15.18
2023-03-03T20:20:42.931Z,16.05
2023-03-03T20:23:29.161Z,16.20
2023-03-03T20:26:59.796Z,15.65
2023-03-03T20:30:05.854Z,14.23
2023-03-03T20:33:02.680Z,14.63
2023-03-03T20:36:11.108Z,14.30
2023-03-03T20:39:07.166Z,15.13
2023-03-03T20:42:10.293Z,14.25
2023-03-03T20:45:02.241Z,15.68
2023-03-03T20:47:48.353Z,14.52
2023-03-03T20:51:01.742Z,15.52
2023-03-03T20:54:10.048Z,14.60
2023-03-03T20:57:15.816Z,13.18
2023-03-03T21:00:49.363Z,15.13
2023-03-03T21:03:41.977Z,12.82
2023-03-03T21:09:36.220Z,12.50
2023-03-03T21:12:30.947Z,13.27
2023-03-03T21:15:29.804Z,13.85
2023-03-03T21:18:25.121Z,12.88
2023-03-03T21:21:11.427Z,13.55
2023-03-03T21:23:59.090Z,13.80
2023-03-03T21:26:48.276Z,14.27
2023-03-03T21:29:35.897Z,14.38
2023-03-03T21:32:40.535Z,14.07
2023-03-03T21:35:26.755Z,14.45
2023-03-03T21:38:32.402Z,12.82
2023-03-03T21:41:19.510Z,13.52
2023-03-03T21:44:34.672Z,13.43
2023-03-03T21:47:23.635Z,14.18
2023-03-03T21:50:11.467Z,14.20
2023-03-03T21:52:57.775Z,12.82
2023-03-03T21:55:48.729Z,13.40
2023-03-03T21:58:35.056Z,13.32
2023-03-03T22:01:22.092Z,14.30
2023-03-03T22:04:08.766Z,13.18
2023-03-03T22:06:54.665Z,13.60
2023-03-03T22:09:40.722Z,15.13
2023-03-03T22:12:26.661Z,12.73
2023-03-03T22:15:13.711Z,12.98
2023-03-03T22:18:00.707Z,14.45
2023-03-03T22:23:33.520Z,12.90
2023-03-03T22:26:21.664Z,14.68
2023-03-03T22:29:07.737Z,12.73
2023-03-03T22:31:53.905Z,13.80
2023-03-03T22:34:40.473Z,14.15
2023-03-03T22:37:26.371Z,14.13
2023-03-03T22:40:12.980Z,13.55
2023-03-03T22:42:59.803Z,12.68
2023-03-03T22:45:45.751Z,13.73
2023-03-03T22:48:32.101Z,13.75
2023-03-03T22:51:21.978Z,13.00
2023-03-03T22:54:07.932Z,13.23
2023-03-03T22:56:53.828Z,13.35
2023-03-03T22:59:39.676Z,13.90
2023-03-03T23:02:25.794Z,14.32
2023-03-03T23:05:12.083Z,13.93
2023-03-03T23:07:58.813Z,14.63
2023-03-03T23:10:45.222Z,13.98
2023-03-03T23:13:32.399Z,14.38
2023-03-03T23:16:18.550Z,13.38
2023-03-03T23:19:04.976Z,13.70
2023-03-03T23:21:50.993Z,12.75
2023-03-03T23:24:37.007Z,13.82
2023-03-03T23:27:22.992Z,13.60
2023-03-03T23:30:10.473Z,14.02
2023-03-03T23:32:56.866Z,13.75
2023-03-03T23:35:45.126Z,13.90
2023-03-03T23:38:31.071Z,13.88
2023-03-03T23:41:16.920Z,14.20
2023-03-03T23:44:03.683Z,13.90
2023-03-03T23:46:49.811Z,13.90
2023-03-03T23:49:36.292Z,13.60
2023-03-03T23:52:22.177Z,12.43
2023-03-03T23:55:08.894Z,12.93
2023-03-03T23:57:55.179Z,13.48
